sensor_id;sensor_type;location;lat;lon;timestamp;temperature;humidity
78536;SHT31;67829;51.968;5.684;2024-01-15T00:01:52;4.5;71.7
78536;SHT31;67829;51.968;5.684;2024-01-15T00:04:21;4.4;71.9
78536;SHT31;67829;51.968;5.684;2024-01-15T00:06:50;4.4;71.9
78536;SHT31;67829;51.968;5.684;2024-01-15T00:09:21;4.4;72.1
78536;SHT31;67829;51.968;5.684;2024-01-15T00:11:49;4.4;72.1
78536;SHT31;67829;51.968;5.684;2024-01-15T00:14:17;4.3;72.1
78536;SHT31;67829;51.968;5.684;2024-01-15T00:16:47;4.3;72.0
78536;SHT31;67829;51.968;5.684;2024-01-15T00:19:17;4.3;72.1
78536;SHT31;67829;51.968;5.684;2024-01-15T00:21:46;4.3;72.1
78536;SHT31;67829;51.968;5.684;2024-01-15T00:24:16;4.2;72.1
78536;SHT31;67829;51.968;5.684;2024-01-15T00:26:47;4.2;72.1
78536;SHT31;67829;51.968;5.684;2024-01-15T00:29:16;4.2;72.1
78536;SHT31;67829;51.968;5.684;2024-01-15T00:31:44;4.2;72.1
78536;SHT31;67829;51.968;5.684;2024-01-15T00:34:13;4.2;72.2
78536;SHT31;67829;51.968;5.684;2024-01-15T00:36:41;4.1;72.1
78536;SHT31;67829;51.968;5.684;2024-01-15T00:39:10;4.1;72.6
78536;SHT31;67829;51.968;5.684;2024-01-15T00:41:39;4.1;72.6
78536;SHT31;67829;51.968;5.684;2024-01-15T00:44:08;4.1;72.7
78536;SHT31;67829;51.968;5.684;2024-01-15T00:46:43;4.0;72.7
78536;SHT31;67829;51.968;5.684;2024-01-15T00:49:13;4.0;72.9
78536;SHT31;67829;51.968;5.684;2024-01-15T00:51:42;4.0;72.8
78536;SHT31;67829;51.968;5.684;2024-01-15T00:54:13;4.0;72.8
78536;SHT31;67829;51.968;5.684;2024-01-15T00:56:41;4.0;72.6
78536;SHT31;67829;51.968;5.684;2024-01-15T00:59:10;3.9;72.4
78536;SHT31;67829;51.968;5.684;2024-01-15T01:01:42;3.9;72.4
78536;SHT31;67829;51.968;5.684;2024-01-15T01:04:13;3.9;72.5
78536;SHT31;67829;51.968;5.684;2024-01-15T01:06:43;3.9;72.6
78536;SHT31;67829;51.968;5.684;2024-01-15T01:09:12;3.9;72.7
78536;SHT31;67829;51.968;5.684;2024-01-15T01:11:40;3.9;72.6
78536;SHT31;67829;51.968;5.684;2024-01-15T01:14:09;3.9;72.5
78536;SHT31;67829;51.968;5.684;2024-01-15T01:16:37;3.8;72.4
78536;SHT31;67829;51.968;5.684;2024-01-15T01:19:07;3.8;72.5
78536;SHT31;67829;51.968;5.684;2024-01-15T01:21:36;3.8;72.5
78536;SHT31;67829;51.968;5.684;2024-01-15T01:24:05;3.8;72.7
78536;SHT31;67829;51.968;5.684;2024-01-15T01:26:33;3.8;73.1
78536;SHT31;67829;51.968;5.684;2024-01-15T01:29:02;3.8;73.5
78536;SHT31;67829;51.968;5.684;2024-01-15T01:31:31;3.9;73.3
78536;SHT31;67829;51.968;5.684;2024-01-15T01:33:59;3.9;73.3
78536;SHT31;67829;51.968;5.684;2024-01-15T01:36:28;3.9;72.4
78536;SHT31;67829;51.968;5.684;2024-01-15T01:38:56;3.9;71.8
78536;SHT31;67829;51.968;5.684;2024-01-15T01:41:24;3.9;71.6
78536;SHT31;67829;51.968;5.684;2024-01-15T01:43:53;3.9;71.2
78536;SHT31;67829;51.968;5.684;2024-01-15T01:46:24;3.8;71.1
78536;SHT31;67829;51.968;5.684;2024-01-15T01:48:55;3.8;70.7
78536;SHT31;67829;51.968;5.684;2024-01-15T01:51:24;3.8;70.6
78536;SHT31;67829;51.968;5.684;2024-01-15T01:53:53;3.8;70.3
78536;SHT31;67829;51.968;5.684;2024-01-15T01:56:22;3.8;70.2
78536;SHT31;67829;51.968;5.684;2024-01-15T01:58:51;3.8;70.1
78536;SHT31;67829;51.968;5.684;2024-01-15T02:01:19;3.8;70.3
78536;SHT31;67829;51.968;5.684;2024-01-15T02:03:48;3.8;70.1
78536;SHT31;67829;51.968;5.684;2024-01-15T02:06:18;3.7;70.1
78536;SHT31;67829;51.968;5.684;2024-01-15T02:08:49;3.7;70.0
78536;SHT31;67829;51.968;5.684;2024-01-15T02:11:19;3.7;70.2
78536;SHT31;67829;51.968;5.684;2024-01-15T02:13:48;3.7;70.1
78536;SHT31;67829;51.968;5.684;2024-01-15T02:16:17;3.7;70.2
78536;SHT31;67829;51.968;5.684;2024-01-15T02:18:46;3.7;70.1
78536;SHT31;67829;51.968;5.684;2024-01-15T02:21:15;3.7;70.1
78536;SHT31;67829;51.968;5.684;2024-01-15T02:23:46;3.7;70.2
78536;SHT31;67829;51.968;5.684;2024-01-15T02:26:15;3.7;70.4
78536;SHT31;67829;51.968;5.684;2024-01-15T02:28:44;3.7;70.4
78536;SHT31;67829;51.968;5.684;2024-01-15T02:31:12;3.7;70.5
78536;SHT31;67829;51.968;5.684;2024-01-15T02:33:42;3.7;70.4
78536;SHT31;67829;51.968;5.684;2024-01-15T02:36:13;3.7;70.6
78536;SHT31;67829;51.968;5.684;2024-01-15T02:38:43;3.7;70.8
78536;SHT31;67829;51.968;5.684;2024-01-15T02:41:11;3.7;70.8
78536;SHT31;67829;51.968;5.684;2024-01-15T02:43:40;3.7;70.9
78536;SHT31;67829;51.968;5.684;2024-01-15T02:46:09;3.7;70.9
78536;SHT31;67829;51.968;5.684;2024-01-15T02:48:37;3.8;70.9
78536;SHT31;67829;51.968;5.684;2024-01-15T02:51:06;3.8;70.9
78536;SHT31;67829;51.968;5.684;2024-01-15T02:53:35;3.8;70.4
78536;SHT31;67829;51.968;5.684;2024-01-15T02:56:06;3.9;70.2
78536;SHT31;67829;51.968;5.684;2024-01-15T02:58:35;3.9;70.1
78536;SHT31;67829;51.968;5.684;2024-01-15T03:01:03;3.9;70.1
78536;SHT31;67829;51.968;5.684;2024-01-15T03:03:34;3.9;70.0
78536;SHT31;67829;51.968;5.684;2024-01-15T03:06:03;3.9;69.8
78536;SHT31;67829;51.968;5.684;2024-01-15T03:08:32;3.9;70.1
78536;SHT31;67829;51.968;5.684;2024-01-15T03:11:01;3.9;70.2
78536;SHT31;67829;51.968;5.684;2024-01-15T03:13:30;3.9;70.2
78536;SHT31;67829;51.968;5.684;2024-01-15T03:15:58;3.9;70.4
78536;SHT31;67829;51.968;5.684;2024-01-15T03:18:27;3.9;70.5
78536;SHT31;67829;51.968;5.684;2024-01-15T03:20:55;3.9;70.4
78536;SHT31;67829;51.968;5.684;2024-01-15T03:23:24;3.9;70.3
78536;SHT31;67829;51.968;5.684;2024-01-15T03:25:52;3.9;70.3
78536;SHT31;67829;51.968;5.684;2024-01-15T03:28:21;3.9;70.3
78536;SHT31;67829;51.968;5.684;2024-01-15T03:30:49;3.9;70.5
78536;SHT31;67829;51.968;5.684;2024-01-15T03:33:17;3.8;70.6
78536;SHT31;67829;51.968;5.684;2024-01-15T03:35:47;3.8;70.8
78536;SHT31;67829;51.968;5.684;2024-01-15T03:38:15;3.8;71.0
78536;SHT31;67829;51.968;5.684;2024-01-15T03:40:45;3.8;71.1
78536;SHT31;67829;51.968;5.684;2024-01-15T03:43:14;3.8;71.0
78536;SHT31;67829;51.968;5.684;2024-01-15T03:45:44;3.8;70.9
78536;SHT31;67829;51.968;5.684;2024-01-15T03:48:13;3.7;70.9
78536;SHT31;67829;51.968;5.684;2024-01-15T03:50:41;3.7;71.1
78536;SHT31;67829;51.968;5.684;2024-01-15T03:53:10;3.7;71.0
78536;SHT31;67829;51.968;5.684;2024-01-15T03:55:38;3.7;71.2
78536;SHT31;67829;51.968;5.684;2024-01-15T03:58:07;3.7;71.4
78536;SHT31;67829;51.968;5.684;2024-01-15T04:00:36;3.7;71.8
78536;SHT31;67829;51.968;5.684;2024-01-15T04:03:06;3.7;72.2
78536;SHT31;67829;51.968;5.684;2024-01-15T04:05:34;3.7;72.2
78536;SHT31;67829;51.968;5.684;2024-01-15T04:08:04;3.7;72.1
78536;SHT31;67829;51.968;5.684;2024-01-15T04:10:32;3.7;72.0
78536;SHT31;67829;51.968;5.684;2024-01-15T04:13:01;3.7;71.9
78536;SHT31;67829;51.968;5.684;2024-01-15T04:15:30;3.8;71.9
78536;SHT31;67829;51.968;5.684;2024-01-15T04:17:58;3.8;72.3
78536;SHT31;67829;51.968;5.684;2024-01-15T04:20:27;3.8;72.4
78536;SHT31;67829;51.968;5.684;2024-01-15T04:22:55;3.9;72.3
78536;SHT31;67829;51.968;5.684;2024-01-15T04:25:24;3.9;72.1
78536;SHT31;67829;51.968;5.684;2024-01-15T04:27:52;4.0;71.9
78536;SHT31;67829;51.968;5.684;2024-01-15T04:30:21;4.0;71.5
78536;SHT31;67829;51.968;5.684;2024-01-15T04:32:49;4.1;70.9
78536;SHT31;67829;51.968;5.684;2024-01-15T04:35:20;4.1;70.9
78536;SHT31;67829;51.968;5.684;2024-01-15T04:37:50;4.1;70.7
78536;SHT31;67829;51.968;5.684;2024-01-15T04:40:19;4.1;70.6
78536;SHT31;67829;51.968;5.684;2024-01-15T04:42:47;4.2;70.4
78536;SHT31;67829;51.968;5.684;2024-01-15T04:45:16;4.2;70.3
78536;SHT31;67829;51.968;5.684;2024-01-15T04:47:45;4.2;69.9
78536;SHT31;67829;51.968;5.684;2024-01-15T04:50:13;4.2;69.7
78536;SHT31;67829;51.968;5.684;2024-01-15T04:52:42;4.2;69.7
78536;SHT31;67829;51.968;5.684;2024-01-15T04:55:10;4.1;69.9
78536;SHT31;67829;51.968;5.684;2024-01-15T04:57:39;4.1;70.1
78536;SHT31;67829;51.968;5.684;2024-01-15T05:00:08;4.1;70.7
78536;SHT31;67829;51.968;5.684;2024-01-15T05:02:37;4.0;70.7
78536;SHT31;67829;51.968;5.684;2024-01-15T05:05:06;4.0;70.3
78536;SHT31;67829;51.968;5.684;2024-01-15T05:07:35;4.0;70.4
78536;SHT31;67829;51.968;5.684;2024-01-15T05:10:04;3.9;70.3
78536;SHT31;67829;51.968;5.684;2024-01-15T05:12:34;3.9;70.4
78536;SHT31;67829;51.968;5.684;2024-01-15T05:15:03;3.8;70.8
78536;SHT31;67829;51.968;5.684;2024-01-15T05:17:32;3.8;71.4
78536;SHT31;67829;51.968;5.684;2024-01-15T05:20:01;3.8;72.0
78536;SHT31;67829;51.968;5.684;2024-01-15T05:22:29;3.8;72.2
78536;SHT31;67829;51.968;5.684;2024-01-15T05:24:58;3.8;72.4
78536;SHT31;67829;51.968;5.684;2024-01-15T05:27:26;3.8;72.4
78536;SHT31;67829;51.968;5.684;2024-01-15T05:29:55;3.7;72.5
78536;SHT31;67829;51.968;5.684;2024-01-15T05:32:24;3.7;72.7
78536;SHT31;67829;51.968;5.684;2024-01-15T05:34:52;3.7;73.1
78536;SHT31;67829;51.968;5.684;2024-01-15T05:37:21;3.8;73.2
78536;SHT31;67829;51.968;5.684;2024-01-15T05:39:49;3.8;73.3
78536;SHT31;67829;51.968;5.684;2024-01-15T05:42:18;3.8;73.2
78536;SHT31;67829;51.968;5.684;2024-01-15T05:44:46;3.8;73.2
78536;SHT31;67829;51.968;5.684;2024-01-15T05:47:15;3.8;73.2
78536;SHT31;67829;51.968;5.684;2024-01-15T05:49:44;3.8;73.4
78536;SHT31;67829;51.968;5.684;2024-01-15T05:52:12;3.8;73.6
78536;SHT31;67829;51.968;5.684;2024-01-15T05:54:41;3.8;73.7
78536;SHT31;67829;51.968;5.684;2024-01-15T05:57:09;3.8;73.6
78536;SHT31;67829;51.968;5.684;2024-01-15T05:59:38;3.8;73.6
78536;SHT31;67829;51.968;5.684;2024-01-15T06:02:06;3.8;73.5
78536;SHT31;67829;51.968;5.684;2024-01-15T06:04:35;3.7;73.6
78536;SHT31;67829;51.968;5.684;2024-01-15T06:07:03;3.7;73.6
78536;SHT31;67829;51.968;5.684;2024-01-15T06:09:32;3.7;73.7
78536;SHT31;67829;51.968;5.684;2024-01-15T06:12:01;3.7;74.0
78536;SHT31;67829;51.968;5.684;2024-01-15T06:14:29;3.7;74.1
78536;SHT31;67829;51.968;5.684;2024-01-15T06:16:58;3.7;74.2
78536;SHT31;67829;51.968;5.684;2024-01-15T06:19:27;3.7;74.3
78536;SHT31;67829;51.968;5.684;2024-01-15T06:21:56;3.8;74.4
78536;SHT31;67829;51.968;5.684;2024-01-15T06:24:25;3.8;74.4
78536;SHT31;67829;51.968;5.684;2024-01-15T06:26:55;3.8;74.2
78536;SHT31;67829;51.968;5.684;2024-01-15T06:29:25;3.8;74.0
78536;SHT31;67829;51.968;5.684;2024-01-15T06:31:54;3.8;73.8
78536;SHT31;67829;51.968;5.684;2024-01-15T06:34:24;3.8;73.8
78536;SHT31;67829;51.968;5.684;2024-01-15T06:36:53;3.9;73.6
78536;SHT31;67829;51.968;5.684;2024-01-15T06:39:21;3.9;73.6
78536;SHT31;67829;51.968;5.684;2024-01-15T06:41:51;3.9;73.6
78536;SHT31;67829;51.968;5.684;2024-01-15T06:44:20;3.9;73.2
78536;SHT31;67829;51.968;5.684;2024-01-15T06:46:51;3.9;73.1
78536;SHT31;67829;51.968;5.684;2024-01-15T06:49:23;3.9;72.8
78536;SHT31;67829;51.968;5.684;2024-01-15T06:51:52;3.9;72.8
78536;SHT31;67829;51.968;5.684;2024-01-15T06:54:21;3.9;72.9
78536;SHT31;67829;51.968;5.684;2024-01-15T06:56:50;3.8;73.0
78536;SHT31;67829;51.968;5.684;2024-01-15T06:59:18;3.8;73.1
78536;SHT31;67829;51.968;5.684;2024-01-15T07:01:46;3.8;73.2
78536;SHT31;67829;51.968;5.684;2024-01-15T07:04:15;3.8;73.3
78536;SHT31;67829;51.968;5.684;2024-01-15T07:06:44;3.8;73.4
78536;SHT31;67829;51.968;5.684;2024-01-15T07:09:14;3.8;73.5
78536;SHT31;67829;51.968;5.684;2024-01-15T07:11:46;3.8;73.6
78536;SHT31;67829;51.968;5.684;2024-01-15T07:14:17;3.8;73.7
78536;SHT31;67829;51.968;5.684;2024-01-15T07:16:45;3.8;73.7
78536;SHT31;67829;51.968;5.684;2024-01-15T07:19:15;3.7;73.7
78536;SHT31;67829;51.968;5.684;2024-01-15T07:21:44;3.7;73.9
78536;SHT31;67829;51.968;5.684;2024-01-15T07:24:13;3.7;74.2
78536;SHT31;67829;51.968;5.684;2024-01-15T07:26:42;3.8;74.5
78536;SHT31;67829;51.968;5.684;2024-01-15T07:29:11;3.8;74.6
78536;SHT31;67829;51.968;5.684;2024-01-15T07:31:39;3.8;74.1
78536;SHT31;67829;51.968;5.684;2024-01-15T07:34:08;3.8;73.6
78536;SHT31;67829;51.968;5.684;2024-01-15T07:36:36;3.8;73.3
78536;SHT31;67829;51.968;5.684;2024-01-15T07:39:05;3.8;73.1
78536;SHT31;67829;51.968;5.684;2024-01-15T07:41:35;3.7;73.3
78536;SHT31;67829;51.968;5.684;2024-01-15T07:44:05;3.7;73.4
78536;SHT31;67829;51.968;5.684;2024-01-15T07:46:33;3.7;73.6
78536;SHT31;67829;51.968;5.684;2024-01-15T07:49:03;3.7;73.6
78536;SHT31;67829;51.968;5.684;2024-01-15T07:51:32;3.7;73.7
78536;SHT31;67829;51.968;5.684;2024-01-15T07:54:01;3.7;73.7
78536;SHT31;67829;51.968;5.684;2024-01-15T07:56:29;3.7;73.8
78536;SHT31;67829;51.968;5.684;2024-01-15T07:58:58;3.7;73.9
78536;SHT31;67829;51.968;5.684;2024-01-15T08:01:27;3.6;73.9
78536;SHT31;67829;51.968;5.684;2024-01-15T08:03:55;3.6;74.1
78536;SHT31;67829;51.968;5.684;2024-01-15T08:06:26;3.6;74.1
78536;SHT31;67829;51.968;5.684;2024-01-15T08:08:54;3.6;74.1
78536;SHT31;67829;51.968;5.684;2024-01-15T08:11:23;3.6;74.3
78536;SHT31;67829;51.968;5.684;2024-01-15T08:13:52;3.6;74.4
78536;SHT31;67829;51.968;5.684;2024-01-15T08:16:20;3.6;74.5
78536;SHT31;67829;51.968;5.684;2024-01-15T08:18:50;3.6;74.6
78536;SHT31;67829;51.968;5.684;2024-01-15T08:21:19;3.6;74.5
78536;SHT31;67829;51.968;5.684;2024-01-15T08:23:49;3.6;74.4
78536;SHT31;67829;51.968;5.684;2024-01-15T08:26:18;3.6;74.4
78536;SHT31;67829;51.968;5.684;2024-01-15T08:28:48;3.6;74.4
78536;SHT31;67829;51.968;5.684;2024-01-15T08:31:17;3.6;74.3
78536;SHT31;67829;51.968;5.684;2024-01-15T08:33:46;3.6;74.4
78536;SHT31;67829;51.968;5.684;2024-01-15T08:36:14;3.6;74.4
78536;SHT31;67829;51.968;5.684;2024-01-15T08:38:46;3.6;74.5
78536;SHT31;67829;51.968;5.684;2024-01-15T08:41:14;3.6;74.5
78536;SHT31;67829;51.968;5.684;2024-01-15T08:43:42;3.6;74.5
78536;SHT31;67829;51.968;5.684;2024-01-15T08:46:11;3.6;74.5
78536;SHT31;67829;51.968;5.684;2024-01-15T08:48:40;3.6;74.5
78536;SHT31;67829;51.968;5.684;2024-01-15T08:51:08;3.6;74.6
78536;SHT31;67829;51.968;5.684;2024-01-15T08:53:37;3.6;74.8
78536;SHT31;67829;51.968;5.684;2024-01-15T08:56:06;3.6;74.8
78536;SHT31;67829;51.968;5.684;2024-01-15T08:58:35;3.6;74.9
78536;SHT31;67829;51.968;5.684;2024-01-15T09:01:03;3.6;75.0
78536;SHT31;67829;51.968;5.684;2024-01-15T09:03:32;3.6;74.9
78536;SHT31;67829;51.968;5.684;2024-01-15T09:06:01;3.7;74.7
78536;SHT31;67829;51.968;5.684;2024-01-15T09:08:30;3.7;74.4
78536;SHT31;67829;51.968;5.684;2024-01-15T09:10:59;3.7;74.5
78536;SHT31;67829;51.968;5.684;2024-01-15T09:13:29;3.7;74.7
78536;SHT31;67829;51.968;5.684;2024-01-15T09:15:58;3.8;74.6
78536;SHT31;67829;51.968;5.684;2024-01-15T09:18:28;3.8;74.2
78536;SHT31;67829;51.968;5.684;2024-01-15T09:20:58;3.8;73.8
78536;SHT31;67829;51.968;5.684;2024-01-15T09:23:27;3.8;73.6
78536;SHT31;67829;51.968;5.684;2024-01-15T09:25:56;3.8;73.5
78536;SHT31;67829;51.968;5.684;2024-01-15T09:28:24;3.8;73.8
78536;SHT31;67829;51.968;5.684;2024-01-15T09:30:52;3.8;73.9
78536;SHT31;67829;51.968;5.684;2024-01-15T09:33:21;3.8;74.2
78536;SHT31;67829;51.968;5.684;2024-01-15T09:35:49;3.9;74.5
78536;SHT31;67829;51.968;5.684;2024-01-15T09:38:18;3.9;74.2
78536;SHT31;67829;51.968;5.684;2024-01-15T09:40:47;3.9;74.0
78536;SHT31;67829;51.968;5.684;2024-01-15T09:43:17;4.0;73.3
78536;SHT31;67829;51.968;5.684;2024-01-15T09:45:46;4.0;73.0
78536;SHT31;67829;51.968;5.684;2024-01-15T09:48:15;4.0;73.1
78536;SHT31;67829;51.968;5.684;2024-01-15T09:50:44;4.0;73.3
78536;SHT31;67829;51.968;5.684;2024-01-15T09:53:15;3.9;73.6
78536;SHT31;67829;51.968;5.684;2024-01-15T09:55:44;3.9;73.1
78536;SHT31;67829;51.968;5.684;2024-01-15T09:58:14;3.9;73.1
78536;SHT31;67829;51.968;5.684;2024-01-15T10:00:46;3.9;73.2
78536;SHT31;67829;51.968;5.684;2024-01-15T10:03:18;3.9;73.4
78536;SHT31;67829;51.968;5.684;2024-01-15T10:05:51;3.8;73.7
78536;SHT31;67829;51.968;5.684;2024-01-15T10:08:20;3.8;74.3
78536;SHT31;67829;51.968;5.684;2024-01-15T10:10:53;3.9;75.8
78536;SHT31;67829;51.968;5.684;2024-01-15T10:13:22;3.9;76.2
78536;SHT31;67829;51.968;5.684;2024-01-15T10:15:53;3.9;75.5
78536;SHT31;67829;51.968;5.684;2024-01-15T10:18:21;3.9;74.3
78536;SHT31;67829;51.968;5.684;2024-01-15T10:20:52;3.9;73.9
78536;SHT31;67829;51.968;5.684;2024-01-15T10:23:21;4.0;73.4
78536;SHT31;67829;51.968;5.684;2024-01-15T10:25:50;4.0;73.0
78536;SHT31;67829;51.968;5.684;2024-01-15T10:28:19;4.0;72.9
78536;SHT31;67829;51.968;5.684;2024-01-15T10:30:51;3.9;73.0
78536;SHT31;67829;51.968;5.684;2024-01-15T10:33:22;3.9;73.3
78536;SHT31;67829;51.968;5.684;2024-01-15T10:35:54;3.9;73.7
78536;SHT31;67829;51.968;5.684;2024-01-15T10:38:24;3.9;74.7
78536;SHT31;67829;51.968;5.684;2024-01-15T10:40:54;4.0;75.4
78536;SHT31;67829;51.968;5.684;2024-01-15T10:43:23;4.0;75.0
78536;SHT31;67829;51.968;5.684;2024-01-15T10:45:52;4.1;74.7
78536;SHT31;67829;51.968;5.684;2024-01-15T10:48:20;4.1;74.8
78536;SHT31;67829;51.968;5.684;2024-01-15T10:50:49;4.2;75.8
78536;SHT31;67829;51.968;5.684;2024-01-15T10:53:19;4.3;74.2
78536;SHT31;67829;51.968;5.684;2024-01-15T10:55:50;4.4;73.3
78536;SHT31;67829;51.968;5.684;2024-01-15T10:58:20;4.4;72.3
78536;SHT31;67829;51.968;5.684;2024-01-15T11:00:50;4.5;71.3
78536;SHT31;67829;51.968;5.684;2024-01-15T11:03:19;4.5;70.7
78536;SHT31;67829;51.968;5.684;2024-01-15T11:05:48;4.5;70.3
78536;SHT31;67829;51.968;5.684;2024-01-15T11:08:17;4.5;70.2
78536;SHT31;67829;51.968;5.684;2024-01-15T11:10:50;4.5;70.2
78536;SHT31;67829;51.968;5.684;2024-01-15T11:13:22;4.6;70.4
78536;SHT31;67829;51.968;5.684;2024-01-15T11:16:03;4.6;70.9
78536;SHT31;67829;51.968;5.684;2024-01-15T11:18:35;4.6;71.0
78536;SHT31;67829;51.968;5.684;2024-01-15T11:21:24;4.6;71.1
78536;SHT31;67829;51.968;5.684;2024-01-15T11:23:55;4.6;71.4
78536;SHT31;67829;51.968;5.684;2024-01-15T11:26:45;4.7;71.6
78536;SHT31;67829;51.968;5.684;2024-01-15T11:29:32;4.7;71.4
78536;SHT31;67829;51.968;5.684;2024-01-15T11:32:02;4.7;71.3
78536;SHT31;67829;51.968;5.684;2024-01-15T11:34:52;4.7;71.0
78536;SHT31;67829;51.968;5.684;2024-01-15T11:37:25;4.8;71.1
78536;SHT31;67829;51.968;5.684;2024-01-15T11:39:56;4.8;71.0
78536;SHT31;67829;51.968;5.684;2024-01-15T11:42:30;4.8;70.9
78536;SHT31;67829;51.968;5.684;2024-01-15T11:45:00;4.8;70.8
78536;SHT31;67829;51.968;5.684;2024-01-15T11:48:11;4.8;70.7
78536;SHT31;67829;51.968;5.684;2024-01-15T11:50:42;4.8;70.6
78536;SHT31;67829;51.968;5.684;2024-01-15T11:53:17;4.8;70.5
78536;SHT31;67829;51.968;5.684;2024-01-15T11:55:47;4.8;70.7
78536;SHT31;67829;51.968;5.684;2024-01-15T11:58:19;4.8;70.9
78536;SHT31;67829;51.968;5.684;2024-01-15T12:00:52;4.8;71.7
78536;SHT31;67829;51.968;5.684;2024-01-15T12:03:22;4.7;72.2
78536;SHT31;67829;51.968;5.684;2024-01-15T12:05:52;4.7;72.2
78536;SHT31;67829;51.968;5.684;2024-01-15T12:08:24;4.7;72.2
78536;SHT31;67829;51.968;5.684;2024-01-15T12:10:53;4.7;72.0
78536;SHT31;67829;51.968;5.684;2024-01-15T12:13:23;4.7;71.7
78536;SHT31;67829;51.968;5.684;2024-01-15T12:15:51;4.7;70.8
78536;SHT31;67829;51.968;5.684;2024-01-15T12:18:20;4.7;70.7
78536;SHT31;67829;51.968;5.684;2024-01-15T12:20:49;4.7;71.3
78536;SHT31;67829;51.968;5.684;2024-01-15T12:23:18;4.7;71.7
78536;SHT31;67829;51.968;5.684;2024-01-15T12:25:47;4.7;71.9
78536;SHT31;67829;51.968;5.684;2024-01-15T12:28:16;4.7;72.0
78536;SHT31;67829;51.968;5.684;2024-01-15T12:30:47;4.8;71.7
78536;SHT31;67829;51.968;5.684;2024-01-15T12:33:18;4.8;71.7
78536;SHT31;67829;51.968;5.684;2024-01-15T12:35:48;4.8;71.6
78536;SHT31;67829;51.968;5.684;2024-01-15T12:38:18;4.8;71.7
78536;SHT31;67829;51.968;5.684;2024-01-15T12:40:48;4.8;72.3
78536;SHT31;67829;51.968;5.684;2024-01-15T12:43:17;4.8;72.8
78536;SHT31;67829;51.968;5.684;2024-01-15T12:45:46;4.9;73.2
78536;SHT31;67829;51.968;5.684;2024-01-15T12:48:15;4.9;72.6
78536;SHT31;67829;51.968;5.684;2024-01-15T12:50:45;5.0;71.7
78536;SHT31;67829;51.968;5.684;2024-01-15T12:53:14;5.0;71.4
78536;SHT31;67829;51.968;5.684;2024-01-15T12:55:43;5.0;70.3
78536;SHT31;67829;51.968;5.684;2024-01-15T12:58:12;5.0;69.9
78536;SHT31;67829;51.968;5.684;2024-01-15T13:00:41;5.0;70.1
78536;SHT31;67829;51.968;5.684;2024-01-15T13:03:11;5.0;70.3
78536;SHT31;67829;51.968;5.684;2024-01-15T13:05:41;5.0;70.6
78536;SHT31;67829;51.968;5.684;2024-01-15T13:08:10;5.0;70.4
78536;SHT31;67829;51.968;5.684;2024-01-15T13:10:38;5.0;69.9
78536;SHT31;67829;51.968;5.684;2024-01-15T13:13:08;5.0;68.4
78536;SHT31;67829;51.968;5.684;2024-01-15T13:15:39;5.0;68.1
78536;SHT31;67829;51.968;5.684;2024-01-15T13:18:09;5.0;68.1
78536;SHT31;67829;51.968;5.684;2024-01-15T13:20:39;5.0;68.4
78536;SHT31;67829;51.968;5.684;2024-01-15T13:23:07;5.0;68.0
78536;SHT31;67829;51.968;5.684;2024-01-15T13:25:38;5.0;67.6
78536;SHT31;67829;51.968;5.684;2024-01-15T13:28:07;5.0;67.6
78536;SHT31;67829;51.968;5.684;2024-01-15T13:30:36;4.9;68.2
78536;SHT31;67829;51.968;5.684;2024-01-15T13:33:09;4.9;68.3
78536;SHT31;67829;51.968;5.684;2024-01-15T13:35:37;4.9;68.3
78536;SHT31;67829;51.968;5.684;2024-01-15T13:38:05;4.9;68.4
78536;SHT31;67829;51.968;5.684;2024-01-15T13:40:35;4.9;68.5
78536;SHT31;67829;51.968;5.684;2024-01-15T13:43:04;4.9;68.3
78536;SHT31;67829;51.968;5.684;2024-01-15T13:45:34;4.9;68.7
78536;SHT31;67829;51.968;5.684;2024-01-15T13:48:04;4.9;67.6
78536;SHT31;67829;51.968;5.684;2024-01-15T13:50:34;4.8;67.6
78536;SHT31;67829;51.968;5.684;2024-01-15T13:53:04;4.8;67.5
78536;SHT31;67829;51.968;5.684;2024-01-15T13:55:33;4.8;67.9
78536;SHT31;67829;51.968;5.684;2024-01-15T13:58:01;4.8;67.9
78536;SHT31;67829;51.968;5.684;2024-01-15T14:00:32;4.7;68.1
78536;SHT31;67829;51.968;5.684;2024-01-15T14:03:01;4.7;68.3
78536;SHT31;67829;51.968;5.684;2024-01-15T14:05:30;4.7;68.0
78536;SHT31;67829;51.968;5.684;2024-01-15T14:07:59;4.7;68.1
78536;SHT31;67829;51.968;5.684;2024-01-15T14:10:27;4.6;68.1
78536;SHT31;67829;51.968;5.684;2024-01-15T14:12:56;4.6;68.3
78536;SHT31;67829;51.968;5.684;2024-01-15T14:15:24;4.6;68.6
78536;SHT31;67829;51.968;5.684;2024-01-15T14:17:53;4.5;68.9
78536;SHT31;67829;51.968;5.684;2024-01-15T14:20:22;4.5;69.2
78536;SHT31;67829;51.968;5.684;2024-01-15T14:22:50;4.5;69.5
78536;SHT31;67829;51.968;5.684;2024-01-15T14:25:19;4.5;69.7
78536;SHT31;67829;51.968;5.684;2024-01-15T14:27:48;4.5;69.9
78536;SHT31;67829;51.968;5.684;2024-01-15T14:30:16;4.5;70.1
78536;SHT31;67829;51.968;5.684;2024-01-15T14:32:45;4.5;70.0
78536;SHT31;67829;51.968;5.684;2024-01-15T14:35:13;4.5;69.9
78536;SHT31;67829;51.968;5.684;2024-01-15T14:37:42;4.4;70.1
78536;SHT31;67829;51.968;5.684;2024-01-15T14:40:14;4.4;70.4
78536;SHT31;67829;51.968;5.684;2024-01-15T14:42:43;4.4;70.7
78536;SHT31;67829;51.968;5.684;2024-01-15T14:45:12;4.4;70.4
78536;SHT31;67829;51.968;5.684;2024-01-15T14:47:41;4.4;70.0
78536;SHT31;67829;51.968;5.684;2024-01-15T14:50:11;4.4;69.6
78536;SHT31;67829;51.968;5.684;2024-01-15T14:52:40;4.4;69.5
78536;SHT31;67829;51.968;5.684;2024-01-15T14:55:11;4.4;69.4
78536;SHT31;67829;51.968;5.684;2024-01-15T14:57:39;4.4;68.7
78536;SHT31;67829;51.968;5.684;2024-01-15T15:00:09;4.4;68.4
78536;SHT31;67829;51.968;5.684;2024-01-15T15:02:40;4.4;68.1
78536;SHT31;67829;51.968;5.684;2024-01-15T15:05:09;4.4;68.3
78536;SHT31;67829;51.968;5.684;2024-01-15T15:07:39;4.4;68.1
78536;SHT31;67829;51.968;5.684;2024-01-15T15:10:09;4.4;68.2
78536;SHT31;67829;51.968;5.684;2024-01-15T15:12:41;4.4;68.8
78536;SHT31;67829;51.968;5.684;2024-01-15T15:15:12;4.4;69.2
78536;SHT31;67829;51.968;5.684;2024-01-15T15:17:43;4.4;69.6
78536;SHT31;67829;51.968;5.684;2024-01-15T15:20:12;4.4;70.1
78536;SHT31;67829;51.968;5.684;2024-01-15T15:22:42;4.4;70.3
78536;SHT31;67829;51.968;5.684;2024-01-15T15:25:11;4.4;70.2
78536;SHT31;67829;51.968;5.684;2024-01-15T15:27:40;4.4;70.5
78536;SHT31;67829;51.968;5.684;2024-01-15T15:30:09;4.4;70.6
78536;SHT31;67829;51.968;5.684;2024-01-15T15:32:39;4.3;70.6
78536;SHT31;67829;51.968;5.684;2024-01-15T15:35:08;4.3;70.7
78536;SHT31;67829;51.968;5.684;2024-01-15T15:37:37;4.3;70.5
78536;SHT31;67829;51.968;5.684;2024-01-15T15:40:06;4.3;70.4
78536;SHT31;67829;51.968;5.684;2024-01-15T15:42:37;4.2;70.5
78536;SHT31;67829;51.968;5.684;2024-01-15T15:45:06;4.2;70.5
78536;SHT31;67829;51.968;5.684;2024-01-15T15:47:36;4.2;70.5
78536;SHT31;67829;51.968;5.684;2024-01-15T15:50:06;4.2;70.4
78536;SHT31;67829;51.968;5.684;2024-01-15T15:52:35;4.1;70.4
78536;SHT31;67829;51.968;5.684;2024-01-15T15:55:05;4.1;70.5
78536;SHT31;67829;51.968;5.684;2024-01-15T15:57:35;4.1;70.5
78536;SHT31;67829;51.968;5.684;2024-01-15T16:00:05;4.1;70.6
78536;SHT31;67829;51.968;5.684;2024-01-15T16:02:34;4.1;70.8
78536;SHT31;67829;51.968;5.684;2024-01-15T16:05:03;4.1;70.6
78536;SHT31;67829;51.968;5.684;2024-01-15T16:07:36;4.1;70.4
78536;SHT31;67829;51.968;5.684;2024-01-15T16:10:06;4.1;69.9
78536;SHT31;67829;51.968;5.684;2024-01-15T16:12:36;4.1;69.6
78536;SHT31;67829;51.968;5.684;2024-01-15T16:15:19;4.2;69.9
78536;SHT31;67829;51.968;5.684;2024-01-15T16:17:48;4.2;70.2
78536;SHT31;67829;51.968;5.684;2024-01-15T16:20:18;4.2;70.2
78536;SHT31;67829;51.968;5.684;2024-01-15T16:22:47;4.2;70.2
78536;SHT31;67829;51.968;5.684;2024-01-15T16:25:16;4.3;70.0
78536;SHT31;67829;51.968;5.684;2024-01-15T16:27:46;4.3;69.8
78536;SHT31;67829;51.968;5.684;2024-01-15T16:30:15;4.3;69.9
78536;SHT31;67829;51.968;5.684;2024-01-15T16:32:43;4.3;69.5